Time;durP1;ratioP1;P1;durP2;ratioP2;P2;SDS_P1;SDS_P2;PMS_P1;PMS_P2;Temp;Humidity;BMP_temperature;BMP_pressure;BME280_temperature;BME280_humidity;BME280_pressure;Samples;Min_cycle;Max_cycle;Signal;HPM_P1;HPM_P2
2023/05/27 00:01:53;;;;;;;9.45;2.47;;;12.80;99.90;;;12.97;97.40;102095.38;5144185;28;20534;-72
2023/05/27 00:04:27;;;;;;;5.93;2.17;;;12.80;99.90;;;12.93;98.11;102103.94;5144039;28;20435;-72
2023/05/27 00:06:59;;;;;;;4.55;1.92;;;12.70;99.90;;;12.87;98.55;102106.25;5150365;28;20399;-72
2023/05/27 00:09:31;;;;;;;5.97;1.70;;;12.70;99.90;;;12.82;98.54;102100.81;5152344;28;20046;-72
2023/05/27 00:12:04;;;;;;;5.32;1.75;;;12.60;99.90;;;12.76;99.19;102101.41;5144174;28;20089;-72
2023/05/27 00:14:36;;;;;;;3.47;1.80;;;12.60;99.90;;;12.72;99.04;102099.50;5152910;28;20307;-73
2023/05/27 00:17:09;;;;;;;4.18;2.33;;;12.50;99.90;;;12.67;99.68;102095.75;5149139;28;20041;-73
2023/05/27 00:19:44;;;;;;;4.70;2.05;;;12.50;99.90;;;12.63;100.00;102099.03;5152542;28;20061;-72
2023/05/27 00:22:17;;;;;;;5.50;1.95;;;12.40;99.90;;;12.59;99.99;102097.13;5132959;28;20171;-72
2023/05/27 00:24:49;;;;;;;4.57;1.90;;;12.40;99.90;;;12.53;100.00;102091.59;5146009;28;20137;-72
2023/05/27 00:27:21;;;;;;;4.90;1.92;;;12.30;99.90;;;12.50;100.00;102097.56;5151549;28;20692;-72
2023/05/27 00:29:53;;;;;;;5.90;2.20;;;12.30;99.90;;;12.46;100.00;102098.28;5151755;28;20503;-71
2023/05/27 00:32:26;;;;;;;4.25;1.95;;;12.30;99.90;;;12.43;100.00;102102.44;5150146;28;20030;-72
2023/05/27 00:34:59;;;;;;;6.28;2.15;;;12.20;99.90;;;12.36;100.00;102103.88;5156046;28;20100;-72
2023/05/27 00:37:31;;;;;;;5.57;2.13;;;12.20;99.90;;;12.32;100.00;102106.25;5132560;28;20045;-71
2023/05/27 00:40:05;;;;;;;7.22;2.05;;;12.10;99.90;;;12.28;100.00;102097.38;5146556;28;20609;-70
2023/05/27 00:42:37;;;;;;;7.18;2.17;;;12.10;99.90;;;12.25;100.00;102105.06;5143516;28;20521;-72
2023/05/27 00:45:11;;;;;;;5.28;2.10;;;12.10;99.90;;;12.20;100.00;102097.00;5125899;28;20046;-72
2023/05/27 00:47:44;;;;;;;6.90;2.50;;;12.00;99.90;;;12.15;100.00;102098.50;5143727;28;20472;-72
2023/05/27 00:50:18;;;;;;;4.97;2.08;;;12.00;99.90;;;12.11;100.00;102101.78;5126239;28;20141;-71
2023/05/27 00:52:50;;;;;;;4.72;1.85;;;11.90;99.90;;;12.07;100.00;102102.47;5150505;28;20597;-73
2023/05/27 00:55:23;;;;;;;4.85;1.77;;;11.90;99.90;;;12.05;100.00;102096.22;5127487;28;20050;-72
2023/05/27 00:57:55;;;;;;;5.18;2.10;;;11.90;99.90;;;12.00;100.00;102094.22;5165458;28;20059;-74
2023/05/27 01:00:27;;;;;;;7.25;2.20;;;11.80;99.90;;;11.97;100.00;102091.47;5142593;28;20074;-74
2023/05/27 01:02:59;;;;;;;4.82;2.28;;;11.80;99.90;;;11.91;100.00;102095.56;5143732;28;20043;-73
2023/05/27 01:05:34;;;;;;;4.05;1.80;;;11.80;99.90;;;11.86;100.00;102093.53;5126124;28;20054;-74
2023/05/27 01:08:21;;;;;;;5.68;1.83;;;11.70;99.90;;;11.82;100.00;102089.00;5130227;28;20526;-71
2023/05/27 01:10:55;;;;;;;4.05;2.08;;;11.70;99.90;;;11.77;100.00;102095.66;5150838;28;20137;-72
2023/05/27 01:13:36;;;;;;;5.50;2.17;;;11.60;99.90;;;11.74;100.00;102099.03;5147908;28;20049;-72
2023/05/27 01:16:13;;;;;;;5.32;2.10;;;11.60;99.90;;;11.69;100.00;102095.28;5130325;28;20511;-72
2023/05/27 01:18:48;;;;;;;4.68;2.10;;;11.50;99.90;;;11.65;100.00;102091.59;5147463;28;20063;-72
2023/05/27 01:21:24;;;;;;;5.45;1.88;;;11.50;99.90;;;11.61;100.00;102087.06;5129849;28;20065;-72
2023/05/27 01:24:04;;;;;;;4.85;2.00;;;11.50;99.90;;;11.57;100.00;102084.19;5129769;28;20457;-72
2023/05/27 01:26:36;;;;;;;5.47;2.05;;;11.40;99.90;;;11.52;100.00;102081.34;5147584;28;20482;-73
2023/05/27 01:29:09;;;;;;;5.05;2.20;;;11.40;99.90;;;11.48;100.00;102095.09;5129814;28;20043;-73
2023/05/27 01:31:48;;;;;;;4.75;2.00;;;11.30;99.90;;;11.46;100.00;102096.69;5147161;28;20043;-73
2023/05/27 01:34:30;;;;;;;6.93;2.10;;;11.30;99.90;;;11.44;100.00;102085.28;5130287;28;20046;-72
2023/05/27 01:37:08;;;;;;;5.88;2.15;;;11.30;99.90;;;11.42;100.00;102086.94;5147444;28;20050;-72
2023/05/27 01:39:42;;;;;;;5.93;2.40;;;11.30;99.90;;;11.40;100.00;102093.75;5147338;28;20043;-72
2023/05/27 01:42:16;;;;;;;5.03;2.03;;;11.30;99.90;;;11.36;100.00;102086.59;5147293;28;20125;-72
2023/05/27 01:44:52;;;;;;;5.90;2.42;;;11.20;99.90;;;11.34;100.00;102090.81;5147531;28;20038;-71
2023/05/27 01:47:24;;;;;;;4.88;2.33;;;11.20;99.90;;;11.29;100.00;102088.00;5147524;28;20065;-72
2023/05/27 01:49:56;;;;;;;6.72;2.05;;;11.20;99.90;;;11.27;100.00;102083.50;5129729;28;20062;-72
2023/05/27 01:52:28;;;;;;;7.00;2.30;;;11.10;99.90;;;11.24;100.00;102088.56;5157675;28;20069;-72
2023/05/27 01:55:02;;;;;;;5.53;2.22;;;11.10;99.90;;;11.21;100.00;102088.41;5150180;28;20073;-72
2023/05/27 01:57:35;;;;;;;4.78;2.30;;;11.00;99.90;;;11.19;100.00;102090.03;5145544;28;20051;-72
2023/05/27 02:00:09;;;;;;;8.13;2.33;;;11.00;99.90;;;11.16;100.00;102095.09;5137210;28;20043;-72
2023/05/27 02:02:48;;;;;;;5.13;2.28;;;11.00;99.90;;;11.13;100.00;102091.50;5155253;28;20578;-72
2023/05/27 02:05:23;;;;;;;5.95;2.30;;;11.00;99.90;;;11.12;100.00;102091.44;5129924;28;20411;-72
2023/05/27 02:07:56;;;;;;;5.45;2.15;;;11.00;99.90;;;11.11;100.00;102087.03;5129866;28;20041;-72
2023/05/27 02:10:29;;;;;;;6.22;2.00;;;11.00;99.90;;;11.08;100.00;102085.16;5155009;28;20307;-72
2023/05/27 02:13:02;;;;;;;7.60;2.53;;;10.90;99.90;;;11.04;100.00;102085.81;5146930;28;20038;-72
2023/05/27 02:15:35;;;;;;;6.20;2.40;;;10.90;99.90;;;11.02;100.00;102082.22;5129164;28;20147;-72
2023/05/27 02:18:09;;;;;;;6.70;2.22;;;10.90;99.90;;;11.02;100.00;102084.84;5128758;28;20043;-72
2023/05/27 02:20:42;;;;;;;5.38;2.72;;;10.90;99.90;;;11.00;100.00;102082.94;5144446;28;20080;-72
2023/05/27 02:23:14;;;;;;;8.43;2.60;;;10.90;99.90;;;11.00;100.00;102085.53;5129341;28;20043;-72
2023/05/27 02:25:48;;;;;;;5.22;1.85;;;10.90;99.90;;;10.98;100.00;102075.03;5146416;28;20435;-72
2023/05/27 02:28:20;;;;;;;5.90;2.17;;;10.80;99.90;;;10.97;100.00;102072.34;5146549;28;20046;-72
2023/05/27 02:30:52;;;;;;;6.50;2.08;;;10.80;99.90;;;10.93;100.00;102068.66;5128834;28;20054;-71
2023/05/27 02:33:24;;;;;;;6.82;2.40;;;10.80;99.90;;;10.92;100.00;102073.81;5129229;28;20050;-72
2023/05/27 02:35:58;;;;;;;8.27;2.75;;;10.80;99.90;;;10.92;100.00;102079.94;5146058;28;20101;-72
2023/05/27 02:38:30;;;;;;;5.10;2.28;;;10.80;99.90;;;10.91;100.00;102083.34;5146454;28;20043;-72
2023/05/27 02:41:04;;;;;;;5.30;2.10;;;10.80;99.90;;;10.88;100.00;102081.47;5128679;28;20043;-71
2023/05/27 02:43:37;;;;;;;5.10;2.22;;;10.80;99.90;;;10.86;100.00;102076.97;5142952;28;20496;-71
2023/05/27 02:46:09;;;;;;;5.60;2.00;;;10.70;99.90;;;10.84;100.00;102082.13;5128746;28;20393;-71
2023/05/27 02:48:41;;;;;;;4.60;2.08;;;10.70;99.90;;;10.82;100.00;102077.63;5128560;28;20051;-71
2023/05/27 02:51:13;;;;;;;7.18;2.33;;;10.70;99.90;;;10.80;100.00;102074.94;5128570;28;20096;-71
2023/05/27 02:53:45;;;;;;;9.32;2.40;;;10.70;99.90;;;10.78;100.00;102075.69;5149625;28;20042;-71
2023/05/27 02:56:19;;;;;;;6.13;2.15;;;10.60;99.90;;;10.73;100.00;102080.63;5148133;28;20056;-71
2023/05/27 02:58:52;;;;;;;7.55;2.35;;;10.60;99.90;;;10.71;100.00;102078.78;5152194;28;20535;-72
2023/05/27 03:01:24;;;;;;;7.65;2.72;;;10.60;99.90;;;10.68;100.00;102070.75;5128226;28;20050;-74
2023/05/27 03:03:56;;;;;;;5.93;2.00;;;10.60;99.90;;;10.65;100.00;102073.22;5145703;28;20053;-72
2023/05/27 03:06:28;;;;;;;6.47;2.47;;;10.60;99.90;;;10.63;100.00;102070.53;5145556;28;20070;-72
2023/05/27 03:09:01;;;;;;;6.90;2.42;;;10.50;99.90;;;10.64;100.00;102074.03;5145336;28;20126;-72
2023/05/27 03:11:34;;;;;;;8.45;2.60;;;10.50;99.90;;;10.60;100.00;102071.25;5145462;28;20053;-72
2023/05/27 03:14:06;;;;;;;5.97;2.53;;;10.50;99.90;;;10.57;100.00;102071.09;5128210;28;20110;-72
2023/05/27 03:16:39;;;;;;;7.78;2.53;;;10.50;99.90;;;10.54;100.00;102073.53;5145350;28;20050;-72
2023/05/27 03:19:11;;;;;;;6.22;2.13;;;10.40;99.90;;;10.53;100.00;102078.66;5145164;28;20146;-71
2023/05/27 03:21:43;;;;;;;5.07;2.53;;;10.40;99.90;;;10.51;100.00;102078.56;5145109;28;20403;-71
2023/05/27 03:24:15;;;;;;;6.68;2.35;;;10.40;99.90;;;10.48;100.00;102075.78;5145176;28;20116;-71
2023/05/27 03:26:50;;;;;;;6.45;2.67;;;10.40;99.90;;;10.48;100.00;102065.34;5127579;28;20052;-72
2023/05/27 03:29:22;;;;;;;4.10;2.38;;;10.40;99.90;;;10.47;100.00;102063.56;5126387;28;20050;-71
2023/05/27 03:31:54;;;;;;;3.42;1.75;;;10.40;99.90;;;10.47;100.00;102063.56;5144888;28;20047;-71
2023/05/27 03:34:27;;;;;;;6.47;2.47;;;10.40;99.90;;;10.47;100.00;102063.56;5127230;28;20042;-71
2023/05/27 03:36:59;;;;;;;6.28;2.03;;;10.40;99.90;;;10.47;100.00;102063.56;5127240;28;20050;-71
2023/05/27 03:39:48;;;;;;;6.28;2.38;;;10.40;99.90;;;10.43;100.00;102059.03;5135262;28;20500;-72
2023/05/27 03:42:21;;;;;;;6.03;2.97;;;10.30;99.90;;;10.42;100.00;102054.59;5127709;28;20498;-72
2023/05/27 03:44:54;;;;;;;5.68;2.58;;;10.30;99.90;;;10.39;100.00;102054.44;5127514;28;20169;-72
2023/05/27 03:47:26;;;;;;;7.00;2.75;;;10.30;99.90;;;10.37;100.00;102052.53;5127818;28;20545;-72
2023/05/27 03:49:58;;;;;;;4.63;2.40;;;10.30;99.90;;;10.33;100.00;102048.88;5127270;28;20051;-72
2023/05/27 03:52:30;;;;;;;6.95;2.47;;;10.20;99.90;;;10.30;100.00;102052.22;5136523;28;20080;-72
2023/05/27 03:55:02;;;;;;;7.10;2.35;;;10.20;99.90;;;10.29;100.00;102041.69;5158802;28;20050;-73
2023/05/27 03:57:36;;;;;;;7.40;2.67;;;10.20;99.90;;;10.27;100.00;102058.97;5144594;28;20038;-72
2023/05/27 04:00:11;;;;;;;5.22;2.20;;;10.20;99.90;;;10.26;100.00;102057.16;5126944;28;20117;-71
2023/05/27 04:02:53;;;;;;;5.78;2.13;;;10.20;99.90;;;10.23;100.00;102054.38;5144590;28;20546;-71
2023/05/27 04:05:26;;;;;;;5.70;2.38;;;10.20;99.90;;;10.22;100.00;102053.44;5127295;28;20055;-72
2023/05/27 04:07:58;;;;;;;3.80;2.05;;;10.20;99.90;;;10.25;100.00;102050.16;5144290;28;20460;-72
2023/05/27 04:10:30;;;;;;;5.55;2.30;;;10.20;99.90;;;10.26;100.00;102057.16;5143968;28;20050;-72
2023/05/27 04:13:03;;;;;;;6.28;2.47;;;10.20;99.90;;;10.25;100.00;102048.47;5144379;28;20043;-72
2023/05/27 04:15:36;;;;;;;5.03;2.15;;;10.20;99.90;;;10.26;100.00;102049.34;5126734;28;20061;-72
2023/05/27 04:18:08;;;;;;;4.90;2.30;;;10.20;99.90;;;10.28;100.00;102050.31;5126913;28;20507;-72
2023/05/27 04:20:43;;;;;;;6.07;2.28;;;10.20;99.90;;;10.30;100.00;102046.09;5127021;28;20038;-72
2023/05/27 04:23:17;;;;;;;5.63;2.08;;;10.20;99.90;;;10.33;100.00;102048.88;5126991;28;20508;-71
2023/05/27 04:25:51;;;;;;;5.07;2.42;;;10.20;99.90;;;10.37;100.00;102044.72;5144200;28;20088;-73
2023/05/27 04:28:27;;;;;;;7.15;2.50;;;10.30;99.90;;;10.41;100.00;102039.75;5126827;28;20055;-74
2023/05/27 04:30:59;;;;;;;5.35;2.45;;;10.40;99.90;;;10.44;100.00;102041.66;5126585;28;20053;-71
2023/05/27 04:33:47;;;;;;;8.70;2.60;;;10.40;99.90;;;10.46;100.00;102047.84;5126719;28;20042;-71
2023/05/27 04:36:25;;;;;;;6.55;2.33;;;10.40;99.90;;;10.47;100.00;102041.81;5126706;28;20051;-72
2023/05/27 04:39:08;;;;;;;4.20;2.17;;;10.40;99.90;;;10.49;100.00;102055.81;5136500;28;20464;-71
2023/05/27 04:41:41;;;;;;;6.30;2.75;;;10.40;99.90;;;10.52;100.00;102056.91;5134763;28;20046;-72
2023/05/27 04:44:18;;;;;;;6.20;2.33;;;10.40;99.90;;;10.58;100.00;102059.84;5141021;28;20120;-72
2023/05/27 04:46:52;;;;;;;8.68;2.67;;;10.50;99.90;;;10.67;100.00;102048.13;5133341;28;20051;-71
2023/05/27 04:49:25;;;;;;;6.30;2.38;;;10.60;99.90;;;10.84;100.00;102056.03;5142078;28;20043;-72
2023/05/27 04:51:57;;;;;;;7.30;2.92;;;10.70;99.90;;;11.08;100.00;102053.84;5142194;28;20538;-71
2023/05/27 04:54:30;;;;;;;8.15;2.78;;;10.90;99.90;;;11.37;100.00;102059.69;5125719;28;20419;-72
2023/05/27 04:57:06;;;;;;;12.45;4.00;;;11.10;99.90;;;11.67;100.00;102056.03;5126157;28;20089;-72
2023/05/27 04:59:58;;;;;;;9.20;3.17;;;11.40;99.90;;;12.00;100.00;102050.72;5125679;28;20043;-71
2023/05/27 05:02:34;;;;;;;11.27;3.38;;;11.70;99.90;;;12.37;100.00;102060.31;5126227;28;20051;-71
2023/05/27 05:05:15;;;;;;;8.80;2.60;;;12.00;99.90;;;12.72;99.11;102056.75;5128757;28;20057;-72
2023/05/27 05:07:47;;;;;;;9.30;2.83;;;12.40;99.90;;;13.06;97.57;102050.41;5143213;28;20105;-73
2023/05/27 05:10:22;;;;;;;11.27;3.42;;;12.70;99.90;;;13.30;95.69;102060.28;5125632;28;20512;-72
2023/05/27 05:12:56;;;;;;;9.75;3.35;;;12.90;99.90;;;13.57;93.72;102055.34;5134467;28;20133;-73
2023/05/27 05:15:30;;;;;;;8.05;2.80;;;13.20;99.90;;;13.87;91.92;102053.91;5128337;28;20523;-72
2023/05/27 05:18:02;;;;;;;6.40;3.03;;;13.50;99.90;;;14.13;91.04;102059.38;5125662;28;20053;-72
2023/05/27 05:20:35;;;;;;;7.68;3.00;;;13.70;99.90;;;14.33;89.44;102060.19;5125550;28;20068;-72
2023/05/27 05:23:09;;;;;;;11.43;2.90;;;13.90;99.90;;;14.59;88.63;102065.59;5126137;28;20057;-73
2023/05/27 05:25:41;;;;;;;6.65;3.03;;;14.10;99.90;;;14.82;87.60;102064.75;5125985;28;20046;-72
2023/05/27 05:28:13;;;;;;;8.90;3.03;;;14.30;99.90;;;14.99;86.23;102067.09;5125912;28;20042;-71
2023/05/27 05:30:47;;;;;;;10.00;2.83;;;14.50;99.90;;;15.02;85.68;102061.97;5149304;28;20050;-74
2023/05/27 05:33:22;;;;;;;9.43;3.05;;;14.60;99.90;;;15.16;86.17;102072.13;5125671;28;20073;-72
2023/05/27 05:35:56;;;;;;;8.95;2.80;;;14.70;99.90;;;15.46;85.57;102072.34;5125641;28;20389;-73
2023/05/27 05:38:33;;;;;;;10.68;3.25;;;14.90;99.90;;;15.60;84.16;102071.91;5125594;28;20052;-72
2023/05/27 05:41:06;;;;;;;8.93;3.08;;;15.10;99.90;;;15.83;83.23;102080.59;5143068;28;20483;-71
2023/05/27 05:43:40;;;;;;;11.68;3.55;;;15.30;99.90;;;16.09;83.53;102077.09;5126177;28;20050;-73
2023/05/27 05:46:14;;;;;;;8.55;2.90;;;15.50;99.90;;;16.35;82.40;102072.66;5127176;28;20047;-71
2023/05/27 05:48:46;;;;;;;8.73;3.45;;;15.70;99.70;;;16.64;81.25;102077.97;5149910;28;20526;-72
2023/05/27 05:51:24;;;;;;;9.20;3.10;;;16.00;99.20;;;16.80;79.02;102080.22;5125697;28;20455;-71
2023/05/27 05:54:01;;;;;;;8.48;2.95;;;16.20;98.00;;;16.83;79.35;102074.19;5152778;23;20058;-81
2023/05/27 05:56:35;;;;;;;9.48;3.20;;;16.30;98.00;;;16.86;78.75;102079.50;5162437;28;20058;-83
2023/05/27 05:59:07;;;;;;;8.85;3.38;;;16.30;97.50;;;16.99;77.69;102076.38;5127361;28;20047;-82
2023/05/27 06:01:41;;;;;;;18.02;4.55;;;16.40;97.00;;;17.16;78.03;102074.25;5156871;28;20085;-83
2023/05/27 06:04:13;;;;;;;9.48;3.35;;;16.60;97.00;;;17.25;76.78;102074.50;5147033;28;20047;-85
2023/05/27 06:06:48;;;;;;;12.25;3.63;;;16.70;96.40;;;17.37;75.99;102077.47;5154880;28;20066;-86
2023/05/27 06:09:41;;;;;;;11.88;2.85;;;16.80;95.90;;;17.69;74.34;102069.53;5145015;28;20081;-86
2023/05/27 06:12:22;;;;;;;9.25;2.90;;;17.00;95.00;;;17.93;72.98;102067.56;5144916;28;20520;-85
2023/05/27 06:14:55;;;;;;;12.38;3.35;;;17.30;94.20;;;18.06;72.02;102064.34;5146714;28;20653;-86
2023/05/27 06:17:35;;;;;;;11.30;2.88;;;17.40;93.40;;;18.31;70.83;102065.81;5137857;28;20043;-83
2023/05/27 06:20:09;;;;;;;8.00;2.53;;;17.60;92.60;;;18.49;71.14;102067.09;5146624;28;20043;-84
2023/05/27 06:22:41;;;;;;;10.25;2.85;;;17.80;92.50;;;18.56;70.56;102063.72;5141860;28;20051;-83
2023/05/27 06:25:39;;;;;;;6.50;2.55;;;18.00;92.00;;;18.64;70.10;102065.66;5130737;28;20047;-83
2023/05/27 06:28:13;;;;;;;8.35;2.92;;;18.00;91.40;;;18.78;69.62;102065.09;5144268;28;20520;-83
2023/05/27 06:30:45;;;;;;;9.18;3.08;;;18.20;91.20;;;18.90;69.74;102063.59;5143018;28;20102;-83
2023/05/27 06:33:20;;;;;;;9.23;3.47;;;18.30;91.00;;;19.13;69.18;102061.44;5143596;28;20054;-84
2023/05/27 06:35:52;;;;;;;10.60;2.88;;;18.50;90.70;;;19.36;69.42;102058.34;5151896;28;20054;-83
2023/05/27 06:38:24;;;;;;;8.93;2.78;;;18.60;90.70;;;19.44;68.84;102056.75;5144204;28;20055;-83
2023/05/27 06:40:59;;;;;;;10.25;2.60;;;18.70;90.20;;;19.41;70.12;102051.38;5148925;28;20122;-81
2023/05/27 06:43:31;;;;;;;9.10;2.92;;;18.80;90.70;;;19.50;69.21;102052.47;5150960;28;20130;-81
2023/05/27 06:46:09;;;;;;;9.07;2.53;;;18.80;90.20;;;19.55;68.35;102049.88;5146066;28;20038;-85
2023/05/27 06:48:54;;;;;;;7.32;2.60;;;18.90;89.00;;;19.53;67.93;102051.63;5137940;28;20046;-82
2023/05/27 06:51:27;;;;;;;10.63;2.85;;;18.90;88.00;;;19.58;67.96;102043.81;5145654;28;20058;-83
2023/05/27 06:54:04;;;;;;;10.80;2.75;;;19.00;87.80;;;19.61;67.26;102041.19;5147224;28;20043;-83
2023/05/27 06:56:42;;;;;;;9.48;2.70;;;19.00;86.50;;;19.72;67.65;102037.88;5136986;28;20521;-77
2023/05/27 06:59:33;;;;;;;11.65;2.58;;;19.10;87.00;;;19.91;66.97;102044.38;5142315;28;20042;-77
2023/05/27 07:02:05;;;;;;;8.85;2.58;;;19.30;86.70;;;20.14;66.91;102042.06;5120741;28;20051;-77
2023/05/27 07:04:38;;;;;;;8.90;2.53;;;19.50;86.30;;;20.45;67.28;102042.56;5125202;28;20074;-77
2023/05/27 07:07:13;;;;;;;7.35;2.80;;;19.70;86.50;;;20.75;65.88;102037.69;5120780;28;20047;-77
2023/05/27 07:09:45;;;;;;;8.70;3.03;;;20.00;85.10;;;20.92;65.11;102032.56;5122119;28;20042;-76
2023/05/27 07:12:18;;;;;;;13.10;3.00;;;20.20;83.70;;;21.18;64.60;102030.22;5123948;28;20054;-78
2023/05/27 07:14:57;;;;;;;7.75;2.47;;;20.40;83.10;;;21.29;63.61;102023.28;5122456;28;20113;-77
2023/05/27 07:17:31;;;;;;;8.90;2.20;;;20.50;81.50;;;21.38;64.15;102030.44;5128615;28;20390;-77
2023/05/27 07:20:06;;;;;;;6.38;2.33;;;20.60;81.90;;;21.52;63.97;102020.88;5128186;28;20050;-77
2023/05/27 07:22:38;;;;;;;7.97;2.75;;;20.70;81.40;;;21.69;63.87;102023.66;5128935;28;20039;-77
2023/05/27 07:25:10;;;;;;;6.53;2.10;;;20.90;81.40;;;21.80;63.92;102029.06;5145619;28;20047;-77
2023/05/27 07:27:43;;;;;;;7.97;2.35;;;21.00;81.20;;;21.83;63.77;102023.78;5130422;28;20046;-78
2023/05/27 07:30:16;;;;;;;7.82;2.38;;;21.00;80.60;;;21.86;63.52;102035.31;5130186;28;20038;-76
2023/05/27 07:32:53;;;;;;;7.15;2.50;;;21.10;80.40;;;21.97;62.61;102026.53;5129435;28;20047;-77
2023/05/27 07:35:27;;;;;;;10.77;2.55;;;21.10;79.40;;;21.98;62.35;102023.03;5128934;28;20038;-84
2023/05/27 07:38:00;;;;;;;7.18;2.63;;;21.10;78.50;;;22.00;62.94;102015.94;5134926;28;20047;-82
2023/05/27 07:40:32;;;;;;;8.50;2.28;;;21.20;79.10;;;22.00;62.03;102011.53;5157113;28;20118;-76
2023/05/27 07:43:04;;;;;;;7.88;2.40;;;21.10;78.10;;;21.92;61.40;102010.59;5129252;28;20051;-77
2023/05/27 07:45:39;;;;;;;6.30;2.00;;;21.10;77.10;;;21.83;61.69;102003.41;5129885;28;20043;-78
2023/05/27 07:48:11;;;;;;;7.35;2.50;;;21.10;77.10;;;21.95;62.53;102003.50;5131744;28;20058;-80
2023/05/27 07:50:45;;;;;;;7.82;2.13;;;21.10;77.80;;;22.13;63.28;102001.91;5126739;28;20120;-77
2023/05/27 07:53:22;;;;;;;7.93;2.85;;;21.20;78.90;;;22.31;61.78;102002.03;5127747;28;20060;-78
2023/05/27 07:55:55;;;;;;;6.72;2.70;;;21.30;77.90;;;22.44;60.87;101993.22;5126613;28;20071;-76
2023/05/27 07:58:27;;;;;;;5.60;2.22;;;21.40;76.40;;;22.65;60.41;101986.22;5126029;28;20062;-76
2023/05/27 08:01:13;;;;;;;8.40;2.22;;;21.60;76.20;;;22.78;60.21;101974.75;5134935;28;20039;-76
2023/05/27 08:03:51;;;;;;;9.20;2.30;;;21.60;75.90;;;23.01;61.32;101969.50;5124809;28;20055;-77
2023/05/27 08:06:39;;;;;;;6.32;2.05;;;21.70;77.20;;;23.42;60.89;101966.91;5144305;28;20069;-77
2023/05/27 08:09:32;;;;;;;6.03;2.30;;;22.00;77.10;;;23.94;59.62;101968.69;5137139;28;20117;-76
2023/05/27 08:12:22;;;;;;;6.03;2.40;;;22.30;76.20;;;24.48;56.91;101959.66;5128070;28;20054;-77
2023/05/27 08:15:08;;;;;;;9.98;2.58;;;22.60;73.80;;;25.00;56.41;101963.84;5152628;28;20042;-84
2023/05/27 08:18:01;;;;;;;6.13;2.15;;;22.90;74.00;;;25.54;56.16;101951.88;5134254;28;20043;-85
2023/05/27 08:20:47;;;;;;;4.55;2.00;;;23.30;73.40;;;26.03;55.20;101954.09;5133309;28;20394;-85
2023/05/27 08:23:37;;;;;;;10.00;2.40;;;23.60;72.60;;;26.74;53.57;101947.00;5133062;28;20314;-85
2023/05/27 08:26:27;;;;;;;7.28;2.08;;;23.90;71.30;;;27.49;51.99;101948.53;5132454;28;20058;-85
2023/05/27 08:29:30;;;;;;;7.53;2.60;;;24.20;70.30;;;28.48;50.90;101942.19;5142236;28;20043;-85
2023/05/27 08:32:18;;;;;;;6.78;2.20;;;24.70;70.00;;;29.45;49.13;101934.53;5134513;28;20106;-84
2023/05/27 08:34:50;;;;;;;6.95;2.20;;;25.30;68.10;;;30.36;47.31;101941.03;5135539;28;20501;-85
2023/05/27 08:37:23;;;;;;;5.68;2.28;;;25.80;67.00;;;30.92;46.98;101927.69;5135234;28;20054;-85
2023/05/27 08:39:57;;;;;;;6.18;2.20;;;26.30;66.20;;;31.39;46.38;101929.75;5134372;28;20412;-85
2023/05/27 08:42:41;;;;;;;4.90;1.90;;;26.70;65.30;;;32.13;46.33;101929.78;5133990;28;20066;-86
2023/05/27 08:45:15;;;;;;;7.93;2.28;;;27.40;65.00;;;32.77;45.54;101914.75;5141245;28;20059;-84
2023/05/27 08:47:48;;;;;;;6.97;2.10;;;28.10;63.90;;;33.10;44.06;101920.63;5150056;28;20113;-84
2023/05/27 08:50:25;;;;;;;7.55;2.75;;;28.60;61.50;;;33.34;42.90;101924.13;5145284;28;20129;-84
2023/05/27 08:52:57;;;;;;;6.72;2.50;;;28.90;59.60;;;33.59;43.04;101921.28;5134983;28;20074;-85
2023/05/27 08:55:34;;;;;;;4.95;1.92;;;29.30;59.30;;;33.95;41.97;101918.78;5133524;28;20482;-85
2023/05/27 08:58:07;;;;;;;6.95;2.30;;;29.70;58.10;;;34.29;41.36;101916.25;5134894;28;20058;-84
2023/05/27 09:00:45;;;;;;;6.72;2.30;;;29.90;57.10;;;34.63;41.09;101914.69;5134280;28;20043;-84
2023/05/27 09:03:24;;;;;;;7.55;2.05;;;30.30;56.60;;;34.91;40.05;101913.34;5134953;28;20129;-85
2023/05/27 09:06:01;;;;;;;7.70;2.40;;;30.50;55.10;;;35.04;38.78;101911.81;5135479;28;20521;-84
2023/05/27 09:08:33;;;;;;;8.85;2.03;;;30.70;53.90;;;35.18;39.51;101906.56;5135804;28;20505;-84
2023/05/27 09:11:08;;;;;;;6.20;2.25;;;30.80;54.50;;;35.31;40.29;101899.53;5135958;28;20114;-84
2023/05/27 09:13:43;;;;;;;8.05;2.33;;;30.90;55.00;;;35.24;40.41;101903.53;5134457;28;20051;-85
2023/05/27 09:16:20;;;;;;;4.38;2.03;;;31.00;55.00;;;35.01;39.46;101901.09;5149735;28;20075;-80
2023/05/27 09:18:52;;;;;;;8.70;2.53;;;31.00;53.60;;;34.66;38.99;101895.59;5138278;28;20051;-80
2023/05/27 09:21:26;;;;;;;5.30;2.05;;;30.80;52.70;;;33.90;39.16;101891.00;5145548;28;20050;-80
2023/05/27 09:23:58;;;;;;;5.75;2.30;;;30.50;52.00;;;33.30;40.58;101892.78;5145282;28;20098;-80
2023/05/27 09:26:34;;;;;;;6.25;2.25;;;30.30;53.00;;;32.55;42.11;101882.38;5134283;28;20050;-79
2023/05/27 09:29:07;;;;;;;5.35;2.10;;;29.90;53.80;;;31.74;42.69;101885.38;5148388;28;20457;-80
2023/05/27 09:31:41;;;;;;;5.22;2.20;;;29.50;53.90;;;30.72;44.05;101874.50;5148966;28;20054;-80
2023/05/27 09:34:15;;;;;;;4.63;2.03;;;28.90;54.50;;;29.76;45.95;101863.91;5127223;28;20023;-81
2023/05/27 09:36:51;;;;;;;4.18;1.95;;;28.30;55.60;;;28.82;47.47;101865.41;5146815;28;20046;-80
2023/05/27 09:39:23;;;;;;;4.53;1.92;;;27.70;56.60;;;28.15;48.65;101861.53;5142892;28;20175;-78
2023/05/27 09:41:58;;;;;;;5.68;1.90;;;27.10;57.50;;;27.66;48.21;101854.50;5139848;28;20114;-81
2023/05/27 09:44:32;;;;;;;6.97;1.70;;;26.70;57.10;;;27.26;47.48;101849.88;5141162;28;20483;-80
2023/05/27 09:47:05;;;;;;;7.10;1.98;;;26.30;56.30;;;27.01;48.99;101853.84;5138859;28;20256;-80
2023/05/27 09:49:39;;;;;;;5.38;1.98;;;26.10;57.50;;;26.89;49.84;101846.03;5138923;28;20057;-81
2023/05/27 09:52:13;;;;;;;8.00;2.22;;;25.90;58.20;;;26.87;50.25;101848.72;5139816;28;20043;-80
2023/05/27 09:54:46;;;;;;;6.32;1.98;;;25.80;59.30;;;26.87;49.37;101845.19;5138639;28;20054;-79
2023/05/27 09:57:20;;;;;;;6.05;2.05;;;25.80;58.10;;;26.79;48.95;101848.84;5140891;28;20046;-81
2023/05/27 09:59:52;;;;;;;5.22;1.88;;;25.80;57.60;;;26.59;48.17;101840.22;5151526;28;20054;-81
2023/05/27 10:02:27;;;;;;;5.57;1.98;;;25.60;56.60;;;26.49;48.77;101835.94;5141409;28;20043;-81
2023/05/27 10:05:00;;;;;;;7.18;2.35;;;25.50;57.20;;;26.51;48.27;101837.69;5158244;28;20046;-80
2023/05/27 10:07:33;;;;;;;6.15;2.00;;;25.60;56.90;;;26.40;47.61;101828.03;5155969;28;20101;-80
2023/05/27 10:10:08;;;;;;;6.18;2.22;;;25.50;56.20;;;26.34;47.29;101842.34;5156367;28;20043;-79
2023/05/27 10:12:44;;;;;;;3.80;1.77;;;25.40;55.90;;;26.25;47.35;101821.97;5136589;28;20508;-79
2023/05/27 10:15:28;;;;;;;7.22;2.15;;;25.40;55.90;;;26.13;49.21;101818.59;5157400;28;20054;-80
2023/05/27 10:18:05;;;;;;;7.00;1.88;;;25.30;57.30;;;26.18;49.37;101812.28;5130869;28;20053;-80
2023/05/27 10:20:40;;;;;;;6.32;2.10;;;25.30;57.60;;;26.24;48.14;101817.56;5136926;28;20058;-80
2023/05/27 10:23:15;;;;;;;4.35;1.88;;;25.30;56.60;;;26.34;48.05;101812.94;5153930;28;20043;-80
2023/05/27 10:25:48;;;;;;;5.63;1.73;;;25.40;56.60;;;26.42;47.54;101808.41;5135915;28;20144;-80
2023/05/27 10:28:31;;;;;;;4.55;1.80;;;25.50;56.50;;;26.46;47.37;101801.22;5155940;28;20042;-80
2023/05/27 10:31:07;;;;;;;5.10;1.83;;;25.50;56.10;;;26.59;46.95;101813.50;5162731;28;20043;-80
2023/05/27 10:33:43;;;;;;;5.43;1.70;;;25.60;55.80;;;26.59;45.95;101797.44;5166610;28;20046;-81
2023/05/27 10:36:17;;;;;;;6.78;2.33;;;25.60;54.80;;;26.58;45.79;101789.47;5161712;28;20054;-80
2023/05/27 10:38:57;;;;;;;5.85;2.10;;;25.60;54.60;;;26.46;46.47;101790.53;5154221;28;20039;-81
2023/05/27 10:41:29;;;;;;;5.30;1.85;;;25.60;55.20;;;26.26;46.27;101790.78;5153099;28;20505;-78
2023/05/27 10:44:02;;;;;;;5.45;1.70;;;25.40;54.60;;;26.19;46.87;101787.31;5156013;28;20073;-80